sensor_id;sensor_type;location;lat;lon;timestamp;P1;durP1;ratioP1;P2;durP2;ratioP2
44426;SDS011;30133;47.866;-4.222;2022-10-31T00:00:59;3.92;;;0.93;;
44426;SDS011;30133;47.866;-4.222;2022-10-31T00:03:26;2.65;;;0.90;;
44426;SDS011;30133;47.866;-4.222;2022-10-31T00:05:52;4.32;;;0.80;;
44426;SDS011;30133;47.866;-4.222;2022-10-31T00:08:22;2.75;;;1.10;;
44426;SDS011;30133;47.866;-4.222;2022-10-31T00:10:48;3.33;;;1.23;;
44426;SDS011;30133;47.866;-4.222;2022-10-31T00:13:14;5.18;;;1.10;;
44426;SDS011;30133;47.866;-4.222;2022-10-31T00:15:40;2.83;;;0.93;;
44426;SDS011;30133;47.866;-4.222;2022-10-31T00:18:08;2.95;;;0.70;;
44426;SDS011;30133;47.866;-4.222;2022-10-31T00:20:35;3.03;;;1.05;;
44426;SDS011;30133;47.866;-4.222;2022-10-31T00:23:04;2.40;;;1.00;;
44426;SDS011;30133;47.866;-4.222;2022-10-31T00:25:35;3.25;;;1.23;;
44426;SDS011;30133;47.866;-4.222;2022-10-31T00:28:04;3.03;;;1.20;;
44426;SDS011;30133;47.866;-4.222;2022-10-31T00:30:31;6.72;;;1.30;;
44426;SDS011;30133;47.866;-4.222;2022-10-31T00:32:57;4.45;;;1.17;;
44426;SDS011;30133;47.866;-4.222;2022-10-31T00:35:24;4.10;;;1.13;;
44426;SDS011;30133;47.866;-4.222;2022-10-31T00:37:51;4.53;;;1.17;;
44426;SDS011;30133;47.866;-4.222;2022-10-31T00:40:18;2.88;;;1.08;;
44426;SDS011;30133;47.866;-4.222;2022-10-31T00:42:44;2.50;;;1.05;;
44426;SDS011;30133;47.866;-4.222;2022-10-31T00:45:10;2.65;;;1.02;;
44426;SDS011;30133;47.866;-4.222;2022-10-31T00:47:37;3.53;;;0.85;;
44426;SDS011;30133;47.866;-4.222;2022-10-31T00:50:04;3.40;;;1.08;;
44426;SDS011;30133;47.866;-4.222;2022-10-31T00:52:33;2.63;;;0.68;;
44426;SDS011;30133;47.866;-4.222;2022-10-31T00:54:59;3.90;;;1.13;;
44426;SDS011;30133;47.866;-4.222;2022-10-31T00:57:25;5.63;;;1.35;;
44426;SDS011;30133;47.866;-4.222;2022-10-31T00:59:51;4.65;;;1.20;;
44426;SDS011;30133;47.866;-4.222;2022-10-31T01:02:18;2.13;;;1.00;;
44426;SDS011;30133;47.866;-4.222;2022-10-31T01:04:44;3.42;;;0.80;;
44426;SDS011;30133;47.866;-4.222;2022-10-31T01:07:10;4.18;;;0.65;;
44426;SDS011;30133;47.866;-4.222;2022-10-31T01:09:38;3.63;;;1.02;;
44426;SDS011;30133;47.866;-4.222;2022-10-31T01:12:04;5.13;;;1.17;;
44426;SDS011;30133;47.866;-4.222;2022-10-31T01:14:30;2.10;;;0.98;;
44426;SDS011;30133;47.866;-4.222;2022-10-31T01:16:56;3.50;;;0.93;;
44426;SDS011;30133;47.866;-4.222;2022-10-31T01:19:22;4.53;;;0.90;;
44426;SDS011;30133;47.866;-4.222;2022-10-31T01:21:48;3.72;;;1.17;;
44426;SDS011;30133;47.866;-4.222;2022-10-31T01:24:13;3.03;;;0.85;;
44426;SDS011;30133;47.866;-4.222;2022-10-31T01:26:39;1.55;;;0.70;;
44426;SDS011;30133;47.866;-4.222;2022-10-31T01:29:06;4.35;;;1.38;;
44426;SDS011;30133;47.866;-4.222;2022-10-31T01:31:34;1.67;;;0.80;;
44426;SDS011;30133;47.866;-4.222;2022-10-31T01:34:03;2.45;;;0.65;;
44426;SDS011;30133;47.866;-4.222;2022-10-31T01:36:35;7.22;;;1.83;;
44426;SDS011;30133;47.866;-4.222;2022-10-31T01:39:07;1.58;;;0.70;;
44426;SDS011;30133;47.866;-4.222;2022-10-31T01:41:37;3.55;;;1.17;;
44426;SDS011;30133;47.866;-4.222;2022-10-31T01:46:42;4.97;;;1.75;;
44426;SDS011;30133;47.866;-4.222;2022-10-31T01:52:00;2.90;;;1.20;;
44426;SDS011;30133;47.866;-4.222;2022-10-31T01:54:33;1.98;;;0.60;;
44426;SDS011;30133;47.866;-4.222;2022-10-31T01:57:11;4.82;;;1.10;;
44426;SDS011;30133;47.866;-4.222;2022-10-31T01:59:42;3.67;;;0.90;;
44426;SDS011;30133;47.866;-4.222;2022-10-31T02:02:13;3.55;;;0.90;;
44426;SDS011;30133;47.866;-4.222;2022-10-31T02:04:42;2.00;;;0.68;;
44426;SDS011;30133;47.866;-4.222;2022-10-31T02:07:19;4.40;;;1.00;;
44426;SDS011;30133;47.866;-4.222;2022-10-31T02:10:02;5.63;;;1.42;;
44426;SDS011;30133;47.866;-4.222;2022-10-31T02:12:29;3.47;;;0.98;;
44426;SDS011;30133;47.866;-4.222;2022-10-31T02:14:56;1.40;;;0.80;;
44426;SDS011;30133;47.866;-4.222;2022-10-31T02:17:24;6.80;;;1.10;;
44426;SDS011;30133;47.866;-4.222;2022-10-31T02:20:12;2.42;;;0.70;;
44426;SDS011;30133;47.866;-4.222;2022-10-31T02:23:02;2.67;;;0.82;;
44426;SDS011;30133;47.866;-4.222;2022-10-31T02:32:05;5.47;;;0.82;;
44426;SDS011;30133;47.866;-4.222;2022-10-31T02:34:55;3.08;;;1.17;;
44426;SDS011;30133;47.866;-4.222;2022-10-31T02:37:39;2.10;;;1.25;;
44426;SDS011;30133;47.866;-4.222;2022-10-31T02:40:21;1.92;;;0.88;;
44426;SDS011;30133;47.866;-4.222;2022-10-31T02:45:31;2.78;;;0.73;;
44426;SDS011;30133;47.866;-4.222;2022-10-31T02:48:28;3.58;;;1.13;;
44426;SDS011;30133;47.866;-4.222;2022-10-31T02:51:00;1.77;;;0.98;;
44426;SDS011;30133;47.866;-4.222;2022-10-31T02:53:35;2.20;;;0.70;;
44426;SDS011;30133;47.866;-4.222;2022-10-31T02:58:35;2.30;;;0.70;;
44426;SDS011;30133;47.866;-4.222;2022-10-31T03:04:02;3.97;;;0.82;;
44426;SDS011;30133;47.866;-4.222;2022-10-31T03:06:54;3.63;;;0.80;;
44426;SDS011;30133;47.866;-4.222;2022-10-31T03:15:29;2.00;;;0.50;;
44426;SDS011;30133;47.866;-4.222;2022-10-31T03:18:03;4.70;;;0.90;;
44426;SDS011;30133;47.866;-4.222;2022-10-31T03:20:37;2.10;;;0.90;;
44426;SDS011;30133;47.866;-4.222;2022-10-31T03:23:08;3.53;;;1.00;;
44426;SDS011;30133;47.866;-4.222;2022-10-31T03:25:39;2.38;;;0.68;;
44426;SDS011;30133;47.866;-4.222;2022-10-31T03:28:07;1.77;;;0.82;;
44426;SDS011;30133;47.866;-4.222;2022-10-31T03:30:37;1.08;;;0.63;;
44426;SDS011;30133;47.866;-4.222;2022-10-31T03:33:08;2.05;;;0.60;;
44426;SDS011;30133;47.866;-4.222;2022-10-31T03:35:41;2.80;;;0.82;;
44426;SDS011;30133;47.866;-4.222;2022-10-31T03:38:10;6.05;;;0.90;;
44426;SDS011;30133;47.866;-4.222;2022-10-31T03:40:37;1.92;;;1.00;;
44426;SDS011;30133;47.866;-4.222;2022-10-31T03:43:07;2.90;;;0.80;;
44426;SDS011;30133;47.866;-4.222;2022-10-31T03:45:44;2.65;;;0.98;;
44426;SDS011;30133;47.866;-4.222;2022-10-31T03:48:15;1.88;;;0.75;;
44426;SDS011;30133;47.866;-4.222;2022-10-31T03:50:58;1.08;;;0.57;;
44426;SDS011;30133;47.866;-4.222;2022-10-31T03:53:53;1.70;;;0.63;;
44426;SDS011;30133;47.866;-4.222;2022-10-31T03:56:33;1.67;;;0.80;;
44426;SDS011;30133;47.866;-4.222;2022-10-31T03:59:08;3.53;;;0.88;;
44426;SDS011;30133;47.866;-4.222;2022-10-31T04:01:43;2.13;;;0.70;;
44426;SDS011;30133;47.866;-4.222;2022-10-31T04:04:15;1.45;;;0.60;;
44426;SDS011;30133;47.866;-4.222;2022-10-31T04:06:42;2.38;;;0.63;;
44426;SDS011;30133;47.866;-4.222;2022-10-31T04:09:11;3.30;;;0.60;;
44426;SDS011;30133;47.866;-4.222;2022-10-31T04:11:43;1.83;;;0.63;;
44426;SDS011;30133;47.866;-4.222;2022-10-31T04:14:14;4.97;;;0.80;;
44426;SDS011;30133;47.866;-4.222;2022-10-31T04:16:41;2.20;;;1.00;;
44426;SDS011;30133;47.866;-4.222;2022-10-31T04:19:09;2.13;;;0.90;;
44426;SDS011;30133;47.866;-4.222;2022-10-31T04:21:36;1.58;;;0.70;;
44426;SDS011;30133;47.866;-4.222;2022-10-31T04:24:02;3.40;;;1.25;;
44426;SDS011;30133;47.866;-4.222;2022-10-31T04:26:29;3.15;;;1.02;;
44426;SDS011;30133;47.866;-4.222;2022-10-31T04:28:55;2.00;;;0.95;;
44426;SDS011;30133;47.866;-4.222;2022-10-31T04:31:20;1.85;;;0.70;;
44426;SDS011;30133;47.866;-4.222;2022-10-31T04:33:46;3.67;;;1.00;;
44426;SDS011;30133;47.866;-4.222;2022-10-31T04:36:12;2.38;;;0.68;;
44426;SDS011;30133;47.866;-4.222;2022-10-31T04:38:38;1.90;;;0.80;;
44426;SDS011;30133;47.866;-4.222;2022-10-31T04:41:04;2.80;;;1.00;;
44426;SDS011;30133;47.866;-4.222;2022-10-31T04:43:30;2.08;;;0.77;;
44426;SDS011;30133;47.866;-4.222;2022-10-31T04:45:56;0.95;;;0.50;;
44426;SDS011;30133;47.866;-4.222;2022-10-31T04:48:22;3.40;;;1.00;;
44426;SDS011;30133;47.866;-4.222;2022-10-31T04:50:48;2.60;;;1.00;;
44426;SDS011;30133;47.866;-4.222;2022-10-31T04:53:14;1.05;;;0.47;;
44426;SDS011;30133;47.866;-4.222;2022-10-31T04:55:40;0.90;;;0.50;;
44426;SDS011;30133;47.866;-4.222;2022-10-31T04:58:06;3.28;;;0.80;;
44426;SDS011;30133;47.866;-4.222;2022-10-31T05:00:31;2.38;;;0.63;;
44426;SDS011;30133;47.866;-4.222;2022-10-31T05:02:57;1.85;;;0.63;;
44426;SDS011;30133;47.866;-4.222;2022-10-31T05:05:24;1.52;;;0.70;;
44426;SDS011;30133;47.866;-4.222;2022-10-31T05:07:53;2.28;;;0.93;;
44426;SDS011;30133;47.866;-4.222;2022-10-31T05:10:23;1.85;;;0.75;;
44426;SDS011;30133;47.866;-4.222;2022-10-31T05:12:53;1.95;;;0.68;;
44426;SDS011;30133;47.866;-4.222;2022-10-31T05:15:21;1.85;;;0.90;;
44426;SDS011;30133;47.866;-4.222;2022-10-31T05:17:48;1.30;;;0.52;;
44426;SDS011;30133;47.866;-4.222;2022-10-31T05:20:15;1.85;;;0.82;;
44426;SDS011;30133;47.866;-4.222;2022-10-31T05:22:44;0.90;;;0.40;;
44426;SDS011;30133;47.866;-4.222;2022-10-31T05:25:12;1.35;;;0.60;;
44426;SDS011;30133;47.866;-4.222;2022-10-31T05:27:39;1.70;;;0.98;;
44426;SDS011;30133;47.866;-4.222;2022-10-31T05:30:07;1.95;;;0.50;;
44426;SDS011;30133;47.866;-4.222;2022-10-31T05:32:40;1.55;;;0.60;;
44426;SDS011;30133;47.866;-4.222;2022-10-31T05:35:09;2.88;;;0.93;;
44426;SDS011;30133;47.866;-4.222;2022-10-31T05:37:39;0.68;;;0.68;;
44426;SDS011;30133;47.866;-4.222;2022-10-31T05:40:06;1.15;;;0.65;;
44426;SDS011;30133;47.866;-4.222;2022-10-31T05:42:34;1.40;;;0.65;;
44426;SDS011;30133;47.866;-4.222;2022-10-31T05:45:01;2.42;;;0.98;;
44426;SDS011;30133;47.866;-4.222;2022-10-31T05:47:32;2.40;;;0.68;;
44426;SDS011;30133;47.866;-4.222;2022-10-31T05:49:57;1.27;;;0.43;;
44426;SDS011;30133;47.866;-4.222;2022-10-31T05:52:24;2.20;;;0.85;;
44426;SDS011;30133;47.866;-4.222;2022-10-31T05:54:50;0.63;;;0.60;;
44426;SDS011;30133;47.866;-4.222;2022-10-31T05:57:16;3.67;;;0.65;;
44426;SDS011;30133;47.866;-4.222;2022-10-31T05:59:42;2.80;;;0.50;;
44426;SDS011;30133;47.866;-4.222;2022-10-31T06:02:07;3.95;;;0.57;;
44426;SDS011;30133;47.866;-4.222;2022-10-31T06:04:33;1.60;;;0.55;;
44426;SDS011;30133;47.866;-4.222;2022-10-31T06:06:59;2.05;;;0.95;;
44426;SDS011;30133;47.866;-4.222;2022-10-31T06:09:26;1.52;;;0.73;;
44426;SDS011;30133;47.866;-4.222;2022-10-31T06:11:51;1.20;;;0.60;;
44426;SDS011;30133;47.866;-4.222;2022-10-31T06:14:17;3.97;;;0.90;;
44426;SDS011;30133;47.866;-4.222;2022-10-31T06:16:43;3.13;;;0.80;;
44426;SDS011;30133;47.866;-4.222;2022-10-31T06:19:10;1.38;;;0.73;;
44426;SDS011;30133;47.866;-4.222;2022-10-31T06:21:36;4.18;;;0.80;;
44426;SDS011;30133;47.866;-4.222;2022-10-31T06:24:03;2.50;;;0.40;;
44426;SDS011;30133;47.866;-4.222;2022-10-31T06:26:30;0.90;;;0.57;;
44426;SDS011;30133;47.866;-4.222;2022-10-31T06:28:57;1.05;;;0.47;;
44426;SDS011;30133;47.866;-4.222;2022-10-31T06:31:23;0.38;;;0.30;;
44426;SDS011;30133;47.866;-4.222;2022-10-31T06:33:49;4.13;;;0.77;;
44426;SDS011;30133;47.866;-4.222;2022-10-31T06:36:14;2.03;;;0.85;;
44426;SDS011;30133;47.866;-4.222;2022-10-31T06:38:40;1.85;;;0.60;;
44426;SDS011;30133;47.866;-4.222;2022-10-31T06:41:06;3.20;;;0.98;;
44426;SDS011;30133;47.866;-4.222;2022-10-31T06:43:33;1.45;;;0.70;;
44426;SDS011;30133;47.866;-4.222;2022-10-31T06:46:03;2.63;;;0.75;;
44426;SDS011;30133;47.866;-4.222;2022-10-31T06:48:30;1.00;;;0.45;;
44426;SDS011;30133;47.866;-4.222;2022-10-31T06:50:57;2.83;;;0.80;;
44426;SDS011;30133;47.866;-4.222;2022-10-31T06:53:27;2.25;;;0.77;;
44426;SDS011;30133;47.866;-4.222;2022-10-31T06:55:57;1.85;;;0.70;;
44426;SDS011;30133;47.866;-4.222;2022-10-31T06:58:23;2.42;;;0.70;;
44426;SDS011;30133;47.866;-4.222;2022-10-31T07:00:49;1.88;;;0.65;;
44426;SDS011;30133;47.866;-4.222;2022-10-31T07:03:15;3.13;;;0.63;;
44426;SDS011;30133;47.866;-4.222;2022-10-31T07:05:41;4.10;;;0.43;;
44426;SDS011;30133;47.866;-4.222;2022-10-31T07:08:10;0.98;;;0.60;;
44426;SDS011;30133;47.866;-4.222;2022-10-31T07:10:38;1.85;;;0.98;;
44426;SDS011;30133;47.866;-4.222;2022-10-31T07:13:13;1.55;;;0.55;;
44426;SDS011;30133;47.866;-4.222;2022-10-31T07:15:40;0.50;;;0.45;;
44426;SDS011;30133;47.866;-4.222;2022-10-31T07:18:08;1.45;;;0.70;;
44426;SDS011;30133;47.866;-4.222;2022-10-31T07:20:36;2.53;;;0.90;;
44426;SDS011;30133;47.866;-4.222;2022-10-31T07:23:02;1.65;;;0.68;;
44426;SDS011;30133;47.866;-4.222;2022-10-31T07:25:29;2.70;;;0.57;;
44426;SDS011;30133;47.866;-4.222;2022-10-31T07:27:55;2.88;;;0.60;;
44426;SDS011;30133;47.866;-4.222;2022-10-31T07:30:21;3.35;;;0.57;;
44426;SDS011;30133;47.866;-4.222;2022-10-31T07:32:48;1.90;;;0.90;;
44426;SDS011;30133;47.866;-4.222;2022-10-31T07:35:17;0.93;;;0.50;;
44426;SDS011;30133;47.866;-4.222;2022-10-31T07:37:48;0.90;;;0.43;;
44426;SDS011;30133;47.866;-4.222;2022-10-31T07:40:15;1.23;;;0.52;;
44426;SDS011;30133;47.866;-4.222;2022-10-31T07:42:42;1.30;;;0.68;;
44426;SDS011;30133;47.866;-4.222;2022-10-31T07:45:11;0.93;;;0.45;;
44426;SDS011;30133;47.866;-4.222;2022-10-31T07:47:41;4.70;;;0.52;;
44426;SDS011;30133;47.866;-4.222;2022-10-31T07:50:11;1.98;;;0.70;;
44426;SDS011;30133;47.866;-4.222;2022-10-31T07:52:39;3.63;;;0.80;;
44426;SDS011;30133;47.866;-4.222;2022-10-31T07:55:05;1.55;;;0.60;;
44426;SDS011;30133;47.866;-4.222;2022-10-31T07:57:32;1.40;;;0.60;;
44426;SDS011;30133;47.866;-4.222;2022-10-31T07:59:58;3.90;;;0.70;;
44426;SDS011;30133;47.866;-4.222;2022-10-31T08:02:24;0.98;;;0.40;;
44426;SDS011;30133;47.866;-4.222;2022-10-31T08:04:51;3.35;;;0.65;;
44426;SDS011;30133;47.866;-4.222;2022-10-31T08:07:17;2.22;;;0.50;;
44426;SDS011;30133;47.866;-4.222;2022-10-31T08:09:43;3.40;;;0.47;;
44426;SDS011;30133;47.866;-4.222;2022-10-31T08:12:09;1.00;;;0.25;;
44426;SDS011;30133;47.866;-4.222;2022-10-31T08:14:35;1.55;;;0.80;;
44426;SDS011;30133;47.866;-4.222;2022-10-31T08:17:01;1.10;;;0.65;;
44426;SDS011;30133;47.866;-4.222;2022-10-31T08:19:27;1.35;;;0.63;;
44426;SDS011;30133;47.866;-4.222;2022-10-31T08:21:53;1.40;;;0.63;;
44426;SDS011;30133;47.866;-4.222;2022-10-31T08:24:20;1.40;;;0.52;;
44426;SDS011;30133;47.866;-4.222;2022-10-31T08:26:47;1.95;;;0.70;;
44426;SDS011;30133;47.866;-4.222;2022-10-31T08:29:15;3.30;;;0.70;;
44426;SDS011;30133;47.866;-4.222;2022-10-31T08:31:41;0.98;;;0.65;;
44426;SDS011;30133;47.866;-4.222;2022-10-31T08:34:07;2.17;;;0.63;;
44426;SDS011;30133;47.866;-4.222;2022-10-31T08:36:33;1.05;;;0.70;;
44426;SDS011;30133;47.866;-4.222;2022-10-31T08:38:59;4.43;;;0.90;;
44426;SDS011;30133;47.866;-4.222;2022-10-31T08:41:26;1.02;;;0.43;;
44426;SDS011;30133;47.866;-4.222;2022-10-31T08:43:52;0.43;;;0.40;;
44426;SDS011;30133;47.866;-4.222;2022-10-31T08:46:18;1.40;;;0.68;;
44426;SDS011;30133;47.866;-4.222;2022-10-31T08:48:44;0.55;;;0.32;;
44426;SDS011;30133;47.866;-4.222;2022-10-31T08:51:12;2.67;;;0.60;;
44426;SDS011;30133;47.866;-4.222;2022-10-31T08:53:38;2.63;;;0.75;;
44426;SDS011;30133;47.866;-4.222;2022-10-31T08:56:04;3.00;;;0.57;;
44426;SDS011;30133;47.866;-4.222;2022-10-31T08:58:31;1.75;;;0.60;;
44426;SDS011;30133;47.866;-4.222;2022-10-31T09:00:58;1.38;;;0.55;;
44426;SDS011;30133;47.866;-4.222;2022-10-31T09:03:27;4.20;;;0.50;;
44426;SDS011;30133;47.866;-4.222;2022-10-31T09:05:59;4.07;;;0.50;;
44426;SDS011;30133;47.866;-4.222;2022-10-31T09:08:31;1.10;;;0.47;;
44426;SDS011;30133;47.866;-4.222;2022-10-31T09:10:58;1.17;;;0.50;;
44426;SDS011;30133;47.866;-4.222;2022-10-31T09:13:25;1.58;;;0.60;;
44426;SDS011;30133;47.866;-4.222;2022-10-31T09:15:51;1.02;;;0.65;;
44426;SDS011;30133;47.866;-4.222;2022-10-31T09:18:18;5.95;;;0.85;;
44426;SDS011;30133;47.866;-4.222;2022-10-31T09:20:47;3.50;;;0.80;;
44426;SDS011;30133;47.866;-4.222;2022-10-31T09:23:15;1.77;;;0.88;;
44426;SDS011;30133;47.866;-4.222;2022-10-31T09:25:47;3.17;;;1.50;;
44426;SDS011;30133;47.866;-4.222;2022-10-31T09:28:15;4.45;;;0.75;;
44426;SDS011;30133;47.866;-4.222;2022-10-31T09:30:45;3.35;;;1.10;;
44426;SDS011;30133;47.866;-4.222;2022-10-31T09:33:13;3.00;;;0.70;;
44426;SDS011;30133;47.866;-4.222;2022-10-31T09:35:39;1.23;;;0.55;;
44426;SDS011;30133;47.866;-4.222;2022-10-31T09:38:08;1.85;;;0.68;;
44426;SDS011;30133;47.866;-4.222;2022-10-31T09:40:45;1.58;;;0.57;;
44426;SDS011;30133;47.866;-4.222;2022-10-31T09:49:29;3.58;;;1.00;;
44426;SDS011;30133;47.866;-4.222;2022-10-31T09:52:35;2.33;;;0.80;;
44426;SDS011;30133;47.866;-4.222;2022-10-31T09:55:08;7.43;;;1.13;;
44426;SDS011;30133;47.866;-4.222;2022-10-31T09:57:42;2.33;;;0.60;;
44426;SDS011;30133;47.866;-4.222;2022-10-31T10:00:19;1.92;;;0.80;;
44426;SDS011;30133;47.866;-4.222;2022-10-31T10:02:56;2.30;;;0.70;;
44426;SDS011;30133;47.866;-4.222;2022-10-31T10:08:40;2.78;;;0.80;;
44426;SDS011;30133;47.866;-4.222;2022-10-31T10:14:08;3.35;;;0.93;;
44426;SDS011;30133;47.866;-4.222;2022-10-31T10:17:02;2.08;;;0.80;;
44426;SDS011;30133;47.866;-4.222;2022-10-31T10:30:43;2.28;;;1.00;;
44426;SDS011;30133;47.866;-4.222;2022-10-31T10:34:01;8.65;;;1.05;;
44426;SDS011;30133;47.866;-4.222;2022-10-31T10:39:04;2.63;;;0.93;;
44426;SDS011;30133;47.866;-4.222;2022-10-31T10:41:48;2.88;;;1.33;;
44426;SDS011;30133;47.866;-4.222;2022-10-31T10:44:38;1.65;;;0.90;;
44426;SDS011;30133;47.866;-4.222;2022-10-31T10:47:32;1.80;;;0.75;;
44426;SDS011;30133;47.866;-4.222;2022-10-31T10:58:09;5.78;;;0.85;;
44426;SDS011;30133;47.866;-4.222;2022-10-31T11:00:43;4.65;;;1.20;;
44426;SDS011;30133;47.866;-4.222;2022-10-31T11:03:13;2.92;;;1.17;;
44426;SDS011;30133;47.866;-4.222;2022-10-31T11:05:52;2.65;;;1.20;;
44426;SDS011;30133;47.866;-4.222;2022-10-31T11:08:29;3.38;;;1.25;;
44426;SDS011;30133;47.866;-4.222;2022-10-31T11:11:11;2.85;;;0.75;;
44426;SDS011;30133;47.866;-4.222;2022-10-31T11:13:52;3.63;;;1.33;;
44426;SDS011;30133;47.866;-4.222;2022-10-31T11:16:37;2.50;;;0.80;;
44426;SDS011;30133;47.866;-4.222;2022-10-31T11:21:42;3.22;;;1.15;;
44426;SDS011;30133;47.866;-4.222;2022-10-31T11:26:36;2.67;;;1.35;;
44426;SDS011;30133;47.866;-4.222;2022-10-31T11:29:04;4.38;;;1.55;;
44426;SDS011;30133;47.866;-4.222;2022-10-31T11:31:50;2.17;;;1.02;;
44426;SDS011;30133;47.866;-4.222;2022-10-31T11:34:35;5.82;;;1.30;;
44426;SDS011;30133;47.866;-4.222;2022-10-31T11:39:43;3.90;;;1.20;;
44426;SDS011;30133;47.866;-4.222;2022-10-31T11:42:18;3.08;;;1.08;;
44426;SDS011;30133;47.866;-4.222;2022-10-31T11:44:51;3.90;;;1.30;;
44426;SDS011;30133;47.866;-4.222;2022-10-31T11:47:29;2.45;;;1.05;;
44426;SDS011;30133;47.866;-4.222;2022-10-31T11:49:57;2.17;;;0.88;;
44426;SDS011;30133;47.866;-4.222;2022-10-31T11:52:36;3.55;;;1.63;;
44426;SDS011;30133;47.866;-4.222;2022-10-31T11:58:04;4.38;;;1.17;;
44426;SDS011;30133;47.866;-4.222;2022-10-31T12:00:48;2.45;;;1.25;;
44426;SDS011;30133;47.866;-4.222;2022-10-31T12:08:33;2.97;;;1.20;;
44426;SDS011;30133;47.866;-4.222;2022-10-31T12:11:14;1.92;;;1.10;;
44426;SDS011;30133;47.866;-4.222;2022-10-31T12:25:45;3.00;;;1.38;;
44426;SDS011;30133;47.866;-4.222;2022-10-31T12:45:52;5.38;;;1.60;;
44426;SDS011;30133;47.866;-4.222;2022-10-31T12:52:00;4.20;;;1.60;;
44426;SDS011;30133;47.866;-4.222;2022-10-31T12:54:46;4.47;;;1.50;;
44426;SDS011;30133;47.866;-4.222;2022-10-31T12:57:45;4.55;;;1.63;;
44426;SDS011;30133;47.866;-4.222;2022-10-31T13:00:18;7.22;;;2.13;;
44426;SDS011;30133;47.866;-4.222;2022-10-31T13:02:53;3.30;;;1.58;;
44426;SDS011;30133;47.866;-4.222;2022-10-31T13:05:46;6.25;;;1.55;;
44426;SDS011;30133;47.866;-4.222;2022-10-31T13:08:20;3.03;;;1.63;;
44426;SDS011;30133;47.866;-4.222;2022-10-31T13:13:45;2.03;;;1.48;;
44426;SDS011;30133;47.866;-4.222;2022-10-31T13:16:25;3.28;;;1.42;;
44426;SDS011;30133;47.866;-4.222;2022-10-31T13:19:10;3.22;;;1.70;;
44426;SDS011;30133;47.866;-4.222;2022-10-31T13:22:08;3.40;;;1.83;;
44426;SDS011;30133;47.866;-4.222;2022-10-31T13:27:37;2.90;;;1.60;;
44426;SDS011;30133;47.866;-4.222;2022-10-31T13:35:23;6.68;;;2.20;;
44426;SDS011;30133;47.866;-4.222;2022-10-31T13:44:14;7.68;;;2.03;;
44426;SDS011;30133;47.866;-4.222;2022-10-31T13:46:43;5.50;;;2.20;;
44426;SDS011;30133;47.866;-4.222;2022-10-31T13:54:35;6.53;;;1.92;;
44426;SDS011;30133;47.866;-4.222;2022-10-31T13:57:06;3.80;;;1.73;;
44426;SDS011;30133;47.866;-4.222;2022-10-31T14:00:01;3.88;;;1.50;;
44426;SDS011;30133;47.866;-4.222;2022-10-31T14:02:44;4.78;;;2.08;;
44426;SDS011;30133;47.866;-4.222;2022-10-31T14:07:58;8.95;;;2.60;;
44426;SDS011;30133;47.866;-4.222;2022-10-31T14:10:28;3.83;;;1.88;;
44426;SDS011;30133;47.866;-4.222;2022-10-31T14:16:03;6.32;;;2.25;;
44426;SDS011;30133;47.866;-4.222;2022-10-31T14:18:41;4.20;;;1.77;;
44426;SDS011;30133;47.866;-4.222;2022-10-31T14:21:37;12.95;;;2.22;;
44426;SDS011;30133;47.866;-4.222;2022-10-31T14:29:25;2.88;;;1.48;;
44426;SDS011;30133;47.866;-4.222;2022-10-31T14:40:41;9.52;;;2.85;;
44426;SDS011;30133;47.866;-4.222;2022-10-31T14:43:38;21.08;;;3.13;;
44426;SDS011;30133;47.866;-4.222;2022-10-31T14:50:25;21.13;;;3.30;;
44426;SDS011;30133;47.866;-4.222;2022-10-31T14:52:51;33.88;;;3.85;;
44426;SDS011;30133;47.866;-4.222;2022-10-31T14:55:22;17.60;;;3.67;;
44426;SDS011;30133;47.866;-4.222;2022-10-31T14:58:00;21.98;;;3.22;;
44426;SDS011;30133;47.866;-4.222;2022-10-31T15:00:31;32.08;;;4.05;;
44426;SDS011;30133;47.866;-4.222;2022-10-31T15:05:34;10.68;;;2.63;;
44426;SDS011;30133;47.866;-4.222;2022-10-31T15:13:42;26.88;;;4.22;;
44426;SDS011;30133;47.866;-4.222;2022-10-31T15:16:10;35.40;;;3.88;;
44426;SDS011;30133;47.866;-4.222;2022-10-31T15:18:47;24.60;;;3.65;;
44426;SDS011;30133;47.866;-4.222;2022-10-31T15:21:26;27.65;;;4.15;;
44426;SDS011;30133;47.866;-4.222;2022-10-31T15:23:54;33.95;;;2.50;;
44426;SDS011;30133;47.866;-4.222;2022-10-31T15:26:23;34.90;;;4.93;;
44426;SDS011;30133;47.866;-4.222;2022-10-31T15:29:10;17.10;;;3.42;;
44426;SDS011;30133;47.866;-4.222;2022-10-31T15:31:48;24.55;;;3.35;;
44426;SDS011;30133;47.866;-4.222;2022-10-31T15:34:27;33.20;;;3.95;;
44426;SDS011;30133;47.866;-4.222;2022-10-31T15:37:13;40.78;;;4.72;;
44426;SDS011;30133;47.866;-4.222;2022-10-31T15:39:41;29.98;;;3.85;;
44426;SDS011;30133;47.866;-4.222;2022-10-31T15:47:45;28.75;;;2.47;;
44426;SDS011;30133;47.866;-4.222;2022-10-31T15:50:31;22.23;;;3.72;;
44426;SDS011;30133;47.866;-4.222;2022-10-31T15:53:02;21.33;;;2.90;;
44426;SDS011;30133;47.866;-4.222;2022-10-31T15:55:32;15.57;;;2.70;;
44426;SDS011;30133;47.866;-4.222;2022-10-31T15:58:09;31.20;;;3.58;;
44426;SDS011;30133;47.866;-4.222;2022-10-31T16:00:38;23.25;;;3.03;;
44426;SDS011;30133;47.866;-4.222;2022-10-31T16:03:08;13.70;;;2.95;;
44426;SDS011;30133;47.866;-4.222;2022-10-31T16:05:45;14.75;;;2.65;;
44426;SDS011;30133;47.866;-4.222;2022-10-31T16:11:40;14.30;;;2.55;;
44426;SDS011;30133;47.866;-4.222;2022-10-31T16:16:22;15.23;;;2.28;;
44426;SDS011;30133;47.866;-4.222;2022-10-31T16:18:49;13.90;;;2.45;;
44426;SDS011;30133;47.866;-4.222;2022-10-31T16:21:25;15.55;;;2.60;;
44426;SDS011;30133;47.866;-4.222;2022-10-31T16:23:57;11.70;;;3.25;;
44426;SDS011;30133;47.866;-4.222;2022-10-31T16:26:28;16.58;;;2.13;;
44426;SDS011;30133;47.866;-4.222;2022-10-31T16:28:55;41.15;;;2.47;;
44426;SDS011;30133;47.866;-4.222;2022-10-31T16:31:56;14.30;;;2.17;;
44426;SDS011;30133;47.866;-4.222;2022-10-31T16:34:17;11.82;;;3.40;;
44426;SDS011;30133;47.866;-4.222;2022-10-31T16:36:47;12.93;;;1.90;;
44426;SDS011;30133;47.866;-4.222;2022-10-31T16:39:13;11.95;;;2.20;;
44426;SDS011;30133;47.866;-4.222;2022-10-31T16:41:40;22.58;;;2.45;;
44426;SDS011;30133;47.866;-4.222;2022-10-31T16:44:17;9.88;;;1.98;;
44426;SDS011;30133;47.866;-4.222;2022-10-31T16:47:07;13.13;;;2.10;;
44426;SDS011;30133;47.866;-4.222;2022-10-31T16:49:42;16.77;;;2.03;;
44426;SDS011;30133;47.866;-4.222;2022-10-31T16:52:10;7.80;;;2.38;;
44426;SDS011;30133;47.866;-4.222;2022-10-31T16:54:36;14.23;;;1.65;;
44426;SDS011;30133;47.866;-4.222;2022-10-31T16:57:03;9.65;;;2.00;;
44426;SDS011;30133;47.866;-4.222;2022-10-31T16:59:31;12.00;;;2.75;;
44426;SDS011;30133;47.866;-4.222;2022-10-31T17:02:01;10.40;;;2.75;;
44426;SDS011;30133;47.866;-4.222;2022-10-31T17:04:28;6.05;;;1.90;;
44426;SDS011;30133;47.866;-4.222;2022-10-31T17:06:54;18.15;;;1.80;;
44426;SDS011;30133;47.866;-4.222;2022-10-31T17:09:20;8.98;;;1.65;;
44426;SDS011;30133;47.866;-4.222;2022-10-31T17:11:47;12.23;;;1.95;;
44426;SDS011;30133;47.866;-4.222;2022-10-31T17:14:16;7.45;;;1.55;;
44426;SDS011;30133;47.866;-4.222;2022-10-31T17:16:43;2.78;;;1.27;;
44426;SDS011;30133;47.866;-4.222;2022-10-31T17:19:09;4.05;;;1.45;;
44426;SDS011;30133;47.866;-4.222;2022-10-31T17:21:37;9.50;;;1.88;;
44426;SDS011;30133;47.866;-4.222;2022-10-31T17:24:04;6.82;;;1.60;;
44426;SDS011;30133;47.866;-4.222;2022-10-31T17:26:31;5.28;;;1.40;;
44426;SDS011;30133;47.866;-4.222;2022-10-31T17:28:57;4.57;;;1.35;;
44426;SDS011;30133;47.866;-4.222;2022-10-31T17:31:26;11.80;;;2.10;;
44426;SDS011;30133;47.866;-4.222;2022-10-31T17:33:57;10.00;;;1.75;;
44426;SDS011;30133;47.866;-4.222;2022-10-31T17:36:24;7.93;;;2.40;;
44426;SDS011;30133;47.866;-4.222;2022-10-31T17:38:51;12.35;;;2.28;;
44426;SDS011;30133;47.866;-4.222;2022-10-31T17:41:16;10.00;;;1.75;;
44426;SDS011;30133;47.866;-4.222;2022-10-31T17:43:42;9.40;;;2.88;;
44426;SDS011;30133;47.866;-4.222;2022-10-31T17:46:08;6.47;;;2.30;;
44426;SDS011;30133;47.866;-4.222;2022-10-31T17:48:34;11.07;;;1.65;;
44426;SDS011;30133;47.866;-4.222;2022-10-31T17:51:04;9.35;;;1.60;;